Time;durP1;ratioP1;P1;durP2;ratioP2;P2;SDS_P1;SDS_P2;PMS_P1;PMS_P2;Temp;Humidity;BMP_temperature;BMP_pressure;BME280_temperature;BME280_humidity;BME280_pressure;Samples;Min_cycle;Max_cycle;Signal;HPM_P1;HPM_P2
2022/03/15 00:02:01;;;;;;;;;7.50;7.50;;;;;-146.03;100.00;60875.16;5015679;28;45489;-92
2022/03/15 00:04:26;;;;;;;;;7.00;7.00;;;;;-146.03;100.00;60875.16;4996317;28;47369;-91
2022/03/15 00:06:58;;;;;;;;;9.50;6.75;;;;;-146.03;100.00;60875.16;4991139;28;45619;-94
2022/03/15 00:09:24;;;;;;;;;8.75;8.00;;;;;-146.03;100.00;60875.16;5006652;28;45495;-86
2022/03/15 00:11:52;;;;;;;;;7.00;7.00;;;;;-146.03;100.00;60875.16;5010496;28;45506;-87
2022/03/15 00:14:19;;;;;;;;;7.50;6.75;;;;;-146.03;100.00;60875.16;5008732;28;45576;-87
2022/03/15 00:16:44;;;;;;;;;9.00;7.25;;;;;-146.03;100.00;60875.16;5010361;28;45419;-87
2022/03/15 00:19:10;;;;;;;;;6.25;5.00;;;;;-146.03;100.00;60875.16;5011514;28;45399;-87
2022/03/15 00:21:37;;;;;;;;;9.00;6.00;;;;;-146.03;100.00;60875.16;5014723;28;45424;-87
2022/03/15 00:24:04;;;;;;;;;8.25;6.50;;;;;-146.03;100.00;60875.16;5013515;28;46251;-87
2022/03/15 00:26:30;;;;;;;;;8.00;8.00;;;;;-146.03;100.00;60875.16;5003830;28;45537;-86
2022/03/15 00:28:55;;;;;;;;;8.00;7.00;;;;;-146.03;100.00;60875.16;5012945;28;45656;-87
2022/03/15 00:31:20;;;;;;;;;7.00;5.00;;;;;-146.03;100.00;60875.16;5001017;28;45674;-87
2022/03/15 00:33:46;;;;;;;;;8.00;7.00;;;;;-146.03;100.00;60875.16;5013315;28;45985;-86
2022/03/15 00:36:12;;;;;;;;;8.00;6.50;;;;;-146.03;100.00;60875.16;5015102;28;45431;-86
2022/03/15 00:38:37;;;;;;;;;7.00;7.00;;;;;-146.03;100.00;60875.16;5012664;28;45513;-87
2022/03/15 00:41:03;;;;;;;;;6.25;6.25;;;;;-146.03;100.00;60875.16;5014510;28;45526;-88
2022/03/15 00:43:29;;;;;;;;;8.25;7.25;;;;;-146.03;100.00;60875.16;5010500;28;48653;-88
2022/03/15 00:45:55;;;;;;;;;3.00;1.00;;;;;-146.03;100.00;60875.16;5005321;28;45526;-88
2022/03/15 00:48:21;;;;;;;;;7.00;7.00;;;;;-146.03;100.00;60875.16;4981476;28;45543;-88
2022/03/15 00:50:46;;;;;;;;;7.25;7.25;;;;;-146.03;100.00;60875.16;5007009;28;45299;-87
2022/03/15 00:53:12;;;;;;;;;9.75;6.75;;;;;-146.03;100.00;60875.16;5000794;28;47152;-87
2022/03/15 00:55:38;;;;;;;;;6.75;6.75;;;;;-146.03;100.00;60875.16;5011987;28;45474;-86
2022/03/15 00:58:05;;;;;;;;;8.00;8.00;;;;;-146.03;100.00;60875.16;5011711;28;45391;-87
2022/03/15 01:00:31;;;;;;;;;8.75;7.50;;;;;-146.03;100.00;60875.16;5007593;28;45607;-86
2022/03/15 01:02:57;;;;;;;;;6.25;6.25;;;;;-146.03;100.00;60875.16;5012005;28;46061;-86
2022/03/15 01:05:23;;;;;;;;;10.00;7.00;;;;;-146.03;100.00;60875.16;5007899;28;45595;-85
2022/03/15 01:07:48;;;;;;;;;7.50;7.50;;;;;-146.03;100.00;60875.16;5015497;28;45487;-86
2022/03/15 01:10:13;;;;;;;;;6.25;6.25;;;;;-146.03;100.00;60875.16;5013002;28;45501;-86
2022/03/15 01:12:39;;;;;;;;;9.50;6.50;;;;;-146.03;100.00;60875.16;5012411;28;46133;-86
2022/03/15 01:15:07;;;;;;;;;8.00;7.75;;;;;-146.03;100.00;60875.16;5013756;28;45307;-87
2022/03/15 01:17:32;;;;;;;;;10.50;9.25;;;;;-146.03;100.00;60875.16;5009688;28;45466;-87
2022/03/15 01:19:58;;;;;;;;;9.00;6.50;;;;;-146.03;100.00;60875.16;5008284;28;45594;-87
2022/03/15 01:22:23;;;;;;;;;8.75;7.00;;;;;-146.03;100.00;60875.16;5008833;28;45312;-87
2022/03/15 01:24:49;;;;;;;;;7.50;5.00;;;;;-146.03;100.00;60875.16;5014791;28;45505;-86
2022/03/15 01:27:15;;;;;;;;;6.00;6.00;;;;;-146.03;100.00;60875.16;5013980;28;45508;-86
2022/03/15 01:29:41;;;;;;;;;10.25;7.50;;;;;-146.03;100.00;60875.16;5015229;28;45319;-87
2022/03/15 01:32:07;;;;;;;;;6.75;6.75;;;;;-146.03;100.00;60875.16;5016476;28;45463;-85
2022/03/15 01:34:32;;;;;;;;;10.00;7.50;;;;;-146.03;100.00;60875.16;4996663;28;46042;-85
2022/03/15 01:36:58;;;;;;;;;6.75;6.75;;;;;-146.03;100.00;60875.16;5009451;28;45489;-85
2022/03/15 01:39:24;;;;;;;;;1.25;1.25;;;;;-146.03;100.00;60875.16;5004540;28;45350;-85
2022/03/15 01:41:49;;;;;;;;;5.75;5.50;;;;;-146.03;100.00;60875.16;5000159;28;47148;-86
2022/03/15 01:44:20;;;;;;;;;7.75;5.75;;;;;-146.03;100.00;60875.16;5000100;28;45325;-84
2022/03/15 01:46:47;;;;;;;;;5.50;5.50;;;;;-146.03;100.00;60875.16;5015830;28;45421;-85
2022/03/15 01:49:12;;;;;;;;;8.50;8.25;;;;;-146.03;100.00;60875.16;5007756;28;45434;-85
2022/03/15 01:51:40;;;;;;;;;7.00;6.50;;;;;-146.03;100.00;60875.16;5004549;28;45895;-85
2022/03/15 01:54:08;;;;;;;;;7.75;5.00;;;;;-146.03;100.00;60875.16;5003329;28;45635;-85
2022/03/15 01:56:34;;;;;;;;;6.50;6.50;;;;;-146.03;100.00;60875.16;4999740;28;45477;-87
2022/03/15 01:59:00;;;;;;;;;5.00;4.00;;;;;-146.03;100.00;60875.16;5001753;28;45414;-87
2022/03/15 02:01:25;;;;;;;;;4.75;4.75;;;;;-146.03;100.00;60875.16;5004297;28;45510;-86
2022/03/15 02:03:51;;;;;;;;;5.00;5.00;;;;;-146.03;100.00;60875.16;5009445;28;45576;-87
2022/03/15 02:06:16;;;;;;;;;7.75;5.00;;;;;-146.03;100.00;60875.16;5015238;28;45497;-86
2022/03/15 02:08:42;;;;;;;;;6.50;5.00;;;;;-146.03;100.00;60875.16;5015614;28;45414;-86
2022/03/15 02:11:08;;;;;;;;;5.50;5.50;;;;;-146.03;100.00;60875.16;5016284;28;46057;-86
2022/03/15 02:13:34;;;;;;;;;6.00;4.25;;;;;-146.03;100.00;60875.16;5015488;28;48349;-86
2022/03/15 02:16:00;;;;;;;;;10.00;5.25;;;;;-146.03;100.00;60875.16;5015289;28;45389;-86
2022/03/15 02:18:27;;;;;;;;;5.50;5.50;;;;;-146.03;100.00;60875.16;4997382;28;45430;-86
2022/03/15 02:20:54;;;;;;;;;7.50;6.00;;;;;-146.03;100.00;60875.16;5015199;28;46073;-85
2022/03/15 02:23:19;;;;;;;;;5.00;5.00;;;;;-146.03;100.00;60875.16;5015572;28;45475;-86
2022/03/15 02:25:44;;;;;;;;;6.00;6.00;;;;;-146.03;100.00;60875.16;5015924;28;45767;-88
2022/03/15 02:28:10;;;;;;;;;6.00;6.00;;;;;-146.03;100.00;60875.16;4995892;28;45395;-87
2022/03/15 02:30:35;;;;;;;;;5.00;4.75;;;;;-146.03;100.00;60875.16;4994433;28;47554;-87
2022/03/15 02:33:01;;;;;;;;;7.75;6.00;;;;;-146.03;100.00;60875.16;5015435;28;45431;-87
2022/03/15 02:35:26;;;;;;;;;7.25;5.75;;;;;-146.03;100.00;60875.16;5014794;28;45320;-86
2022/03/15 02:37:52;;;;;;;;;5.00;5.00;;;;;-146.03;100.00;60875.16;5015749;28;45654;-87
2022/03/15 02:40:17;;;;;;;;;9.50;6.75;;;;;-146.03;100.00;60875.16;5014127;28;45876;-88
2022/03/15 02:42:43;;;;;;;;;6.00;5.00;;;;;-146.03;100.00;60875.16;5015094;28;45454;-88
2022/03/15 02:45:10;;;;;;;;;8.00;6.25;;;;;-146.03;100.00;60875.16;5015050;28;45560;-87
2022/03/15 02:47:36;;;;;;;;;5.00;4.50;;;;;-146.03;100.00;60875.16;5015040;28;45288;-87
2022/03/15 02:50:01;;;;;;;;;8.75;7.50;;;;;-146.03;100.00;60875.16;5013904;28;47177;-87
2022/03/15 02:52:28;;;;;;;;;8.00;5.25;;;;;-146.03;100.00;60875.16;5014904;28;45425;-89
2022/03/15 02:54:53;;;;;;;;;8.50;6.00;;;;;-146.03;100.00;60875.16;5014969;28;45427;-89
2022/03/15 02:57:20;;;;;;;;;7.00;7.00;;;;;-146.03;100.00;60875.16;4995787;28;45473;-87
2022/03/15 02:59:45;;;;;;;;;6.25;5.50;;;;;-146.03;100.00;60875.16;5014804;28;45570;-88
2022/03/15 03:02:11;;;;;;;;;5.25;5.25;;;;;-146.03;100.00;60875.16;4997367;28;45940;-89
2022/03/15 03:04:37;;;;;;;;;5.25;5.00;;;;;-146.03;100.00;60875.16;4997113;28;45385;-88
2022/03/15 03:07:02;;;;;;;;;7.00;7.00;;;;;-146.03;100.00;60875.16;5015028;28;45367;-89
2022/03/15 03:09:28;;;;;;;;;7.50;6.25;;;;;-146.03;100.00;60875.16;5014842;28;46313;-88
2022/03/15 03:11:54;;;;;;;;;6.75;6.75;;;;;-146.03;100.00;60875.16;5014743;28;45390;-88
2022/03/15 03:14:22;;;;;;;;;6.00;5.75;;;;;-146.03;100.00;60875.16;5014829;28;45403;-89
2022/03/15 03:16:47;;;;;;;;;8.75;7.00;;;;;-146.03;100.00;60875.16;5015256;28;45358;-88
2022/03/15 03:19:13;;;;;;;;;9.00;6.00;;;;;-146.03;100.00;60875.16;5014096;28;45455;-88
2022/03/15 03:21:38;;;;;;;;;6.00;6.00;;;;;-146.03;100.00;60875.16;5014831;28;45450;-90
2022/03/15 03:24:08;;;;;;;;;8.00;6.50;;;;;-146.03;100.00;60875.16;4995795;28;45663;-89
2022/03/15 03:26:37;;;;;;;;;6.50;6.50;;;;;-146.03;100.00;60875.16;5014913;28;45449;-88
2022/03/15 03:29:09;;;;;;;;;8.50;6.00;;;;;-146.03;100.00;60875.16;5013901;28;46881;-89
2022/03/15 03:31:36;;;;;;;;;6.25;6.25;;;;;-146.03;100.00;60875.16;4997117;28;45549;-89
2022/03/15 03:34:01;;;;;;;;;5.25;5.25;;;;;-146.03;100.00;60875.16;5014142;28;45428;-88
2022/03/15 03:36:27;;;;;;;;;5.00;5.00;;;;;-146.03;100.00;60875.16;4993644;28;45502;-88
2022/03/15 03:38:52;;;;;;;;;7.25;7.25;;;;;-146.03;100.00;60875.16;4996410;28;46227;-87
2022/03/15 03:41:17;;;;;;;;;8.00;8.00;;;;;-146.03;100.00;60875.16;4996717;28;45251;-87
2022/03/15 03:43:43;;;;;;;;;6.00;6.00;;;;;-146.03;100.00;60875.16;5014775;28;45660;-88
2022/03/15 03:46:08;;;;;;;;;6.00;6.00;;;;;-146.03;100.00;60875.16;5014114;28;45240;-87
2022/03/15 03:48:34;;;;;;;;;5.50;5.50;;;;;-146.03;100.00;60875.16;4994446;28;47092;-87
2022/03/15 03:51:01;;;;;;;;;8.50;8.50;;;;;-146.03;100.00;60875.16;4996145;28;45477;-86
2022/03/15 03:53:26;;;;;;;;;6.50;6.00;;;;;-146.03;100.00;60875.16;4999753;28;45394;-86
2022/03/15 03:55:51;;;;;;;;;6.00;5.25;;;;;-146.03;100.00;60875.16;5018353;28;45362;-86
2022/03/15 03:58:17;;;;;;;;;7.25;5.00;;;;;-146.03;100.00;60875.16;5017476;28;45636;-85
2022/03/15 04:00:42;;;;;;;;;7.00;5.75;;;;;-146.03;100.00;60875.16;5017301;28;45562;-85
2022/03/15 04:03:08;;;;;;;;;7.00;7.00;;;;;-146.03;100.00;60875.16;5017375;28;45592;-85
2022/03/15 04:05:39;;;;;;;;;7.75;6.75;;;;;-146.03;100.00;60875.16;5017582;28;45634;-84
2022/03/15 04:08:05;;;;;;;;;9.25;7.25;;;;;-146.03;100.00;60875.16;5018058;28;45417;-84
2022/03/15 04:10:31;;;;;;;;;8.00;8.00;;;;;-146.03;100.00;60875.16;5017324;28;47053;-84
2022/03/15 04:12:57;;;;;;;;;8.00;8.00;;;;;-146.03;100.00;60875.16;5017276;28;45493;-84
2022/03/15 04:15:23;;;;;;;;;6.25;6.25;;;;;-146.03;100.00;60875.16;5017463;28;45548;-83
2022/03/15 04:17:50;;;;;;;;;7.00;5.25;;;;;-146.03;100.00;60875.16;5017135;28;45743;-84
2022/03/15 04:20:16;;;;;;;;;8.25;7.75;;;;;-146.03;100.00;60875.16;5017528;28;45262;-84
2022/03/15 04:22:42;;;;;;;;;7.50;6.00;;;;;-146.03;100.00;60875.16;5016708;28;45467;-84
2022/03/15 04:25:08;;;;;;;;;7.25;7.25;;;;;-146.03;100.00;60875.16;5017317;28;45351;-85
2022/03/15 04:27:33;;;;;;;;;5.00;4.00;;;;;-146.03;100.00;60875.16;5016974;28;45495;-86
2022/03/15 04:29:59;;;;;;;;;7.00;5.75;;;;;-146.03;100.00;60875.16;5017259;28;45303;-85
2022/03/15 04:32:24;;;;;;;;;6.25;6.25;;;;;-146.03;100.00;60875.16;4999221;28;45391;-84
2022/03/15 04:34:50;;;;;;;;;6.75;6.75;;;;;-146.03;100.00;60875.16;5015461;28;45374;-84
2022/03/15 04:37:15;;;;;;;;;8.75;6.00;;;;;-146.03;100.00;60875.16;5016708;28;46595;-84
2022/03/15 04:39:41;;;;;;;;;7.00;7.00;;;;;-146.03;100.00;60875.16;5016806;28;45858;-84
2022/03/15 04:42:07;;;;;;;;;7.00;6.00;;;;;-146.03;100.00;60875.16;5017100;28;45604;-84
2022/03/15 04:44:32;;;;;;;;;6.25;6.25;;;;;-146.03;100.00;60875.16;4999242;28;45670;-84
2022/03/15 04:46:58;;;;;;;;;6.75;6.00;;;;;-146.03;100.00;60875.16;5016884;28;45483;-83
2022/03/15 04:49:24;;;;;;;;;9.00;6.00;;;;;-146.03;100.00;60875.16;5016726;28;45624;-84
2022/03/15 04:51:49;;;;;;;;;6.25;6.25;;;;;-146.03;100.00;60875.16;5016953;28;45361;-84
2022/03/15 04:54:15;;;;;;;;;5.25;5.25;;;;;-146.03;100.00;60875.16;5016648;28;45426;-84
2022/03/15 04:56:40;;;;;;;;;6.00;6.00;;;;;-146.03;100.00;60875.16;5016674;28;46393;-84
2022/03/15 04:59:06;;;;;;;;;5.75;5.75;;;;;-146.03;100.00;60875.16;5013240;28;45555;-85
2022/03/15 05:01:31;;;;;;;;;8.00;8.00;;;;;-146.03;100.00;60875.16;4998454;28;45394;-85
2022/03/15 05:03:57;;;;;;;;;7.00;7.00;;;;;-146.03;100.00;60875.16;4996711;28;45733;-85
2022/03/15 05:06:22;;;;;;;;;7.00;6.00;;;;;-146.03;100.00;60875.16;5016492;28;46179;-86
2022/03/15 05:08:48;;;;;;;;;7.00;6.50;;;;;-146.03;100.00;60875.16;5016708;28;45296;-85
2022/03/15 05:11:14;;;;;;;;;8.25;7.25;;;;;-146.03;100.00;60875.16;5017019;28;45416;-84
2022/03/15 05:13:47;;;;;;;;;5.00;5.00;;;;;-146.03;100.00;60875.16;5015525;28;45441;-85
2022/03/15 05:16:18;;;;;;;;;8.75;7.00;;;;;-146.03;100.00;60875.16;5015996;28;45540;-85
2022/03/15 05:18:54;;;;;;;;;7.75;7.75;;;;;-146.03;100.00;60875.16;5016447;28;45422;-84
2022/03/15 05:21:25;;;;;;;;;7.25;7.25;;;;;-146.03;100.00;60875.16;5016373;28;45265;-84
2022/03/15 05:23:51;;;;;;;;;10.00;7.00;;;;;-146.03;100.00;60875.16;5016511;28;45481;-84
2022/03/15 05:26:17;;;;;;;;;7.50;6.25;;;;;-146.03;100.00;60875.16;5016064;28;46830;-84
2022/03/15 05:28:44;;;;;;;;;6.50;6.50;;;;;-146.03;100.00;60875.16;5015549;28;45830;-84
2022/03/15 05:31:10;;;;;;;;;6.75;5.50;;;;;-146.03;100.00;60875.16;5015947;28;45961;-84
2022/03/15 05:33:37;;;;;;;;;6.25;6.25;;;;;-146.03;100.00;60875.16;5016086;28;45468;-85
2022/03/15 05:36:04;;;;;;;;;8.25;7.00;;;;;-146.03;100.00;60875.16;5016077;28;45593;-84
2022/03/15 05:38:29;;;;;;;;;7.50;7.50;;;;;-146.03;100.00;60875.16;5016099;28;45453;-84
2022/03/15 05:40:55;;;;;;;;;8.50;5.50;;;;;-146.03;100.00;60875.16;5016736;28;45363;-84
2022/03/15 05:43:22;;;;;;;;;8.00;8.00;;;;;-146.03;100.00;60875.16;5015873;28;45444;-84
2022/03/15 05:45:47;;;;;;;;;6.00;6.00;;;;;-146.03;100.00;60875.16;5015422;28;46343;-83
2022/03/15 05:48:13;;;;;;;;;7.00;7.00;;;;;-146.03;100.00;60875.16;5016070;28;45450;-83
2022/03/15 05:50:38;;;;;;;;;7.75;7.75;;;;;-146.03;100.00;60875.16;5000063;28;45412;-83
2022/03/15 05:53:04;;;;;;;;;6.50;6.50;;;;;-146.03;100.00;60875.16;4998719;28;45594;-83
2022/03/15 05:55:33;;;;;;;;;7.50;7.50;;;;;-146.03;100.00;60875.16;4996300;28;48089;-83
2022/03/15 05:57:59;;;;;;;;;8.75;7.50;;;;;-146.03;100.00;60875.16;4997676;28;45398;-83
2022/03/15 06:00:26;;;;;;;;;8.00;8.00;;;;;-146.03;100.00;60875.16;5015464;28;46036;-83
2022/03/15 06:02:51;;;;;;;;;12.25;11.75;;;;;-146.03;100.00;60875.16;5015883;28;45600;-83
2022/03/15 06:05:17;;;;;;;;;11.25;9.50;;;;;-146.03;100.00;60875.16;5015778;28;45813;-84
2022/03/15 06:07:47;;;;;;;;;8.75;8.75;;;;;-146.03;100.00;60875.16;5015906;28;45459;-83
2022/03/15 06:10:12;;;;;;;;;11.00;10.00;;;;;-146.03;100.00;60875.16;5015514;28;45429;-83
2022/03/15 06:12:38;;;;;;;;;11.00;10.00;;;;;-146.03;100.00;60875.16;5015025;28;45504;-83
2022/03/15 06:15:03;;;;;;;;;8.75;8.75;;;;;-146.03;100.00;60875.16;5013449;28;45374;-84
2022/03/15 06:17:31;;;;;;;;;9.50;9.50;;;;;-146.03;100.00;60875.16;5014936;28;45783;-83
2022/03/15 06:19:57;;;;;;;;;11.25;11.25;;;;;-146.03;100.00;60875.16;4998543;28;45537;-83
2022/03/15 06:22:22;;;;;;;;;11.00;11.00;;;;;-146.03;100.00;60875.16;5014799;28;45418;-83
2022/03/15 06:24:48;;;;;;;;;16.00;15.75;;;;;-146.03;100.00;60875.16;5014431;28;45412;-83
2022/03/15 06:27:13;;;;;;;;;13.50;10.75;;;;;-146.03;100.00;60875.16;5014427;28;48532;-83
2022/03/15 06:29:38;;;;;;;;;11.50;11.00;;;;;-146.03;100.00;60875.16;5014719;28;45286;-83
2022/03/15 06:32:04;;;;;;;;;12.25;12.25;;;;;-146.03;100.00;60875.16;5015343;28;45522;-83
2022/03/15 06:34:29;;;;;;;;;13.75;13.00;;;;;-146.03;100.00;60875.16;5014052;28;45473;-82
2022/03/15 06:36:55;;;;;;;;;13.50;13.50;;;;;-146.03;100.00;60875.16;5014250;28;45377;-82
2022/03/15 06:39:20;;;;;;;;;11.75;11.50;;;;;-146.03;100.00;60875.16;5014380;28;45442;-82
2022/03/15 06:41:46;;;;;;;;;10.50;9.25;;;;;-146.03;100.00;60875.16;5014232;28;45364;-82
2022/03/15 06:44:12;;;;;;;;;15.25;13.25;;;;;-146.03;100.00;60875.16;5014706;28;45351;-83
2022/03/15 06:46:37;;;;;;;;;12.75;12.75;;;;;-146.03;100.00;60875.16;5014205;28;45497;-82
2022/03/15 06:49:05;;;;;;;;;15.25;14.25;;;;;-146.03;100.00;60875.16;5014261;28;45316;-82
2022/03/15 06:51:30;;;;;;;;;14.00;12.75;;;;;-146.03;100.00;60875.16;5014268;28;45444;-82
2022/03/15 06:53:56;;;;;;;;;16.50;15.25;;;;;-146.03;100.00;60875.16;5014110;28;45544;-82
2022/03/15 06:56:21;;;;;;;;;15.00;15.00;;;;;-146.03;100.00;60875.16;5013684;28;45910;-82
2022/03/15 06:58:47;;;;;;;;;15.50;14.00;;;;;-146.03;100.00;60875.16;5015158;28;45485;-82
2022/03/15 07:01:12;;;;;;;;;13.75;12.75;;;;;-146.03;100.00;60875.16;4996318;28;45522;-82
2022/03/15 07:03:38;;;;;;;;;17.25;14.50;;;;;-146.03;100.00;60875.16;5014089;28;46430;-82
2022/03/15 07:06:03;;;;;;;;;12.25;11.75;;;;;-146.03;100.00;60875.16;4994055;28;45872;-82
2022/03/15 07:08:30;;;;;;;;;12.00;12.00;;;;;-146.03;100.00;60875.16;5014568;28;45650;-82
2022/03/15 07:10:55;;;;;;;;;11.75;11.75;;;;;-146.03;100.00;60875.16;5013608;28;45417;-81
2022/03/15 07:13:25;;;;;;;;;11.75;11.00;;;;;-146.03;100.00;60875.16;5013874;28;45735;-84
2022/03/15 07:15:50;;;;;;;;;17.75;15.25;;;;;-146.03;100.00;60875.16;5013311;28;45668;-84
2022/03/15 07:18:16;;;;;;;;;13.50;13.50;;;;;-146.03;100.00;60875.16;5012935;28;45468;-82
2022/03/15 07:20:41;;;;;;;;;15.00;15.00;;;;;-146.03;100.00;60875.16;4996818;28;45502;-82
2022/03/15 07:23:07;;;;;;;;;18.75;16.75;;;;;-146.03;100.00;60875.16;5011503;28;45367;-82
2022/03/15 07:25:32;;;;;;;;;17.75;14.00;;;;;-146.03;100.00;60875.16;5013399;28;45505;-82
2022/03/15 07:27:57;;;;;;;;;18.75;14.00;;;;;-146.03;100.00;60875.16;5018385;28;45388;-82
2022/03/15 07:30:23;;;;;;;;;14.00;14.00;;;;;-146.03;100.00;60875.16;5019815;28;45318;-81
2022/03/15 07:32:49;;;;;;;;;14.00;14.00;;;;;-146.03;100.00;60875.16;5019609;28;45450;-82
2022/03/15 07:35:15;;;;;;;;;18.50;17.25;;;;;-146.03;100.00;60875.16;5020832;28;45566;-82
2022/03/15 07:37:51;;;;;;;;;18.25;15.75;;;;;-146.03;100.00;60875.16;5020631;28;45587;-82
2022/03/15 07:40:20;;;;;;;;;17.00;17.00;;;;;-146.03;100.00;60875.16;5019781;28;45492;-84
2022/03/15 07:42:46;;;;;;;;;17.75;17.25;;;;;-146.03;100.00;60875.16;5020223;28;46480;-80
2022/03/15 07:45:12;;;;;;;;;18.50;17.00;;;;;-146.03;100.00;60875.16;5020126;28;45713;-86
2022/03/15 07:47:38;;;;;;;;;18.00;18.00;;;;;-146.03;100.00;60875.16;5018514;28;45554;-84
2022/03/15 07:50:07;;;;;;;;;17.50;17.00;;;;;-146.03;100.00;60875.16;5002067;28;45582;-86
2022/03/15 07:52:32;;;;;;;;;14.50;14.50;;;;;-146.03;100.00;60875.16;5001674;28;47824;-85
2022/03/15 07:54:58;;;;;;;;;15.50;15.50;;;;;-146.03;100.00;60875.16;5014595;28;46697;-84
2022/03/15 07:57:23;;;;;;;;;19.00;19.00;;;;;-146.03;100.00;60875.16;5019454;28;45699;-83
2022/03/15 07:59:49;;;;;;;;;20.25;17.00;;;;;-146.03;100.00;60875.16;5001689;28;45818;-83
2022/03/15 08:02:15;;;;;;;;;20.50;20.50;;;;;-146.03;100.00;60875.16;5019132;28;45961;-84
2022/03/15 08:04:41;;;;;;;;;19.00;17.50;;;;;-146.03;100.00;60875.16;5019000;28;45629;-83
2022/03/15 08:07:07;;;;;;;;;19.25;17.50;;;;;-146.03;100.00;60875.16;5019025;28;45509;-84
2022/03/15 08:09:32;;;;;;;;;18.75;18.75;;;;;-146.03;100.00;60875.16;5019050;28;45687;-85
2022/03/15 08:11:57;;;;;;;;;19.50;17.75;;;;;-146.03;100.00;60875.16;5020096;28;45758;-85
2022/03/15 08:14:23;;;;;;;;;20.00;17.00;;;;;-146.03;100.00;60875.16;5020402;28;45561;-85
2022/03/15 08:16:48;;;;;;;;;15.75;15.50;;;;;-146.03;100.00;60875.16;5020303;28;46345;-85
2022/03/15 08:19:14;;;;;;;;;17.75;17.75;;;;;-146.03;100.00;60875.16;5019930;28;45563;-85
2022/03/15 08:21:39;;;;;;;;;19.00;18.00;;;;;-146.03;100.00;60875.16;4999875;28;47718;-85
2022/03/15 08:24:05;;;;;;;;;20.25;18.50;;;;;-146.03;100.00;60875.16;5019678;28;45478;-85
2022/03/15 08:26:30;;;;;;;;;15.75;15.75;;;;;-146.03;100.00;60875.16;5019083;28;45298;-85
2022/03/15 08:28:56;;;;;;;;;20.25;18.50;;;;;-146.03;100.00;60875.16;5019641;28;45505;-85
2022/03/15 08:31:21;;;;;;;;;16.50;16.50;;;;;-146.03;100.00;60875.16;5019414;28;46158;-85
2022/03/15 08:33:47;;;;;;;;;20.75;18.25;;;;;-146.03;100.00;60875.16;5019635;28;45487;-85
2022/03/15 08:36:13;;;;;;;;;20.50;19.50;;;;;-146.03;100.00;60875.16;5020082;28;45322;-85
2022/03/15 08:38:39;;;;;;;;;20.00;18.00;;;;;-146.03;100.00;60875.16;5015471;28;45580;-85
2022/03/15 08:41:05;;;;;;;;;18.25;17.00;;;;;-146.03;100.00;60875.16;5015471;28;46121;-85
2022/03/15 08:43:30;;;;;;;;;17.25;15.25;;;;;-146.03;100.00;60875.16;5016410;28;45443;-85
2022/03/15 08:45:56;;;;;;;;;13.75;13.75;;;;;-146.03;100.00;60875.16;5015579;28;45915;-85
2022/03/15 08:48:21;;;;;;;;;15.00;15.00;;;;;-146.03;100.00;60875.16;4998071;28;45620;-86
2022/03/15 08:50:47;;;;;;;;;15.75;15.25;;;;;-146.03;100.00;60875.16;5015427;28;46466;-85
2022/03/15 08:53:13;;;;;;;;;13.00;13.00;;;;;-146.03;100.00;60875.16;5015596;28;45618;-85
2022/03/15 08:55:38;;;;;;;;;21.75;18.00;;;;;-146.03;100.00;60875.16;5016642;28;45417;-86
2022/03/15 08:58:04;;;;;;;;;20.75;19.00;;;;;-146.03;100.00;60875.16;5016154;28;45550;-85
2022/03/15 09:00:29;;;;;;;;;16.00;16.00;;;;;-146.03;100.00;60875.16;5012810;28;45600;-85
2022/03/15 09:02:55;;;;;;;;;18.00;16.25;;;;;-146.03;100.00;60875.16;5015612;28;45277;-85
2022/03/15 09:05:20;;;;;;;;;17.25;17.25;;;;;-146.03;100.00;60875.16;5015426;28;45344;-85
2022/03/15 09:07:55;;;;;;;;;18.75;18.75;;;;;-146.03;100.00;60875.16;5015122;28;45387;-86
2022/03/15 09:10:22;;;;;;;;;19.00;18.25;;;;;-146.03;100.00;60875.16;5014494;28;46328;-86
2022/03/15 09:12:49;;;;;;;;;23.75;20.75;;;;;-146.03;100.00;60875.16;4997474;28;45446;-86
2022/03/15 09:15:16;;;;;;;;;22.25;21.25;;;;;-146.03;100.00;60875.16;5015878;28;45352;-86
2022/03/15 09:17:42;;;;;;;;;24.75;24.75;;;;;-146.03;100.00;60875.16;5015637;28;45377;-85
2022/03/15 09:20:09;;;;;;;;;24.75;22.25;;;;;-146.03;100.00;60875.16;5015713;28;46264;-85
2022/03/15 09:22:35;;;;;;;;;22.00;21.75;;;;;-146.03;100.00;60875.16;5014768;28;45264;-85
2022/03/15 09:25:01;;;;;;;;;23.25;22.25;;;;;-146.03;100.00;60875.16;5015799;28;47049;-86
2022/03/15 09:27:27;;;;;;;;;21.25;20.50;;;;;-146.03;100.00;60875.16;5015189;28;45462;-86
2022/03/15 09:29:54;;;;;;;;;20.25;20.25;;;;;-146.03;100.00;60875.16;5014774;28;46436;-85
2022/03/15 09:32:19;;;;;;;;;16.75;16.75;;;;;-146.03;100.00;60875.16;5015770;28;45371;-85
2022/03/15 09:34:44;;;;;;;;;24.25;23.00;;;;;-146.03;100.00;60875.16;5016243;28;45536;-85
2022/03/15 09:37:10;;;;;;;;;26.75;23.25;;;;;-146.03;100.00;60875.16;5015069;28;45494;-86
2022/03/15 09:39:35;;;;;;;;;23.75;23.75;;;;;-146.03;100.00;60875.16;5014696;28;49789;-85
2022/03/15 09:42:08;;;;;;;;;24.50;23.75;;;;;-146.03;100.00;60875.16;5015769;28;45602;-85
2022/03/15 09:44:38;;;;;;;;;20.00;20.00;;;;;-146.03;100.00;60875.16;5015253;28;45581;-85
2022/03/15 09:47:08;;;;;;;;;20.00;19.75;;;;;-146.03;100.00;60875.16;5014940;28;45481;-85
2022/03/15 09:49:37;;;;;;;;;23.75;22.75;;;;;-146.03;100.00;60875.16;5014873;28;46521;-85
2022/03/15 09:52:07;;;;;;;;;20.00;18.25;;;;;-146.03;100.00;60875.16;5015067;28;45366;-85
2022/03/15 09:54:33;;;;;;;;;23.00;21.50;;;;;-146.03;100.00;60875.16;5015286;28;47645;-85
2022/03/15 09:56:59;;;;;;;;;25.25;24.75;;;;;-146.03;100.00;60875.16;5015344;28;45426;-85
2022/03/15 09:59:26;;;;;;;;;28.00;24.25;;;;;-146.03;100.00;60875.16;5015310;28;46600;-85
2022/03/15 10:01:53;;;;;;;;;22.00;22.00;;;;;-146.03;100.00;60875.16;5013727;28;45632;-85
2022/03/15 10:04:21;;;;;;;;;18.00;18.00;;;;;-146.03;100.00;60875.16;5015610;28;45501;-84
2022/03/15 10:06:47;;;;;;;;;22.75;19.00;;;;;-146.03;100.00;60875.16;5015268;28;45490;-85
2022/03/15 10:09:13;;;;;;;;;20.00;19.75;;;;;-146.03;100.00;60875.16;5015011;28;45697;-85
2022/03/15 10:11:39;;;;;;;;;30.25;27.75;;;;;-146.03;100.00;60875.16;5014899;28;45562;-84
2022/03/15 10:14:05;;;;;;;;;26.00;26.00;;;;;-146.03;100.00;60875.16;4997521;28;45486;-85
2022/03/15 10:16:41;;;;;;;;;28.00;24.50;;;;;-146.03;100.00;60875.16;5014556;28;45360;-84
2022/03/15 10:19:13;;;;;;;;;31.00;25.25;;;;;-146.03;100.00;60875.16;5012614;28;46048;-84
2022/03/15 10:21:47;;;;;;;;;26.25;24.00;;;;;-146.03;100.00;60875.16;5015104;28;45375;-85
2022/03/15 10:24:19;;;;;;;;;25.50;24.00;;;;;-146.03;100.00;60875.16;5014991;28;45527;-84
2022/03/15 10:26:47;;;;;;;;;28.25;23.50;;;;;-146.03;100.00;60875.16;5000281;28;45352;-85
2022/03/15 10:29:13;;;;;;;;;26.25;24.50;;;;;-146.03;100.00;60875.16;5015658;28;46486;-85
2022/03/15 10:31:39;;;;;;;;;23.75;23.00;;;;;-146.03;100.00;60875.16;5014748;28;45382;-84
2022/03/15 10:34:07;;;;;;;;;21.25;21.25;;;;;-146.03;100.00;60875.16;5014662;28;45660;-84
2022/03/15 10:36:44;;;;;;;;;23.00;23.00;;;;;-146.03;100.00;60875.16;5014933;28;45727;-85
2022/03/15 10:39:11;;;;;;;;;26.00;24.00;;;;;-146.03;100.00;60875.16;5015003;28;45789;-84
2022/03/15 10:41:45;;;;;;;;;34.25;31.75;;;;;-146.03;100.00;60875.16;5014795;28;45432;-84
2022/03/15 10:44:21;;;;;;;;;33.00;32.00;;;;;-146.03;100.00;60875.16;5011386;28;45604;-85
2022/03/15 10:46:59;;;;;;;;;35.75;30.50;;;;;-146.03;100.00;60875.16;5014981;28;45414;-84
2022/03/15 10:49:26;;;;;;;;;23.50;22.75;;;;;-146.03;100.00;60875.16;5014349;28;46648;-84
2022/03/15 10:51:51;;;;;;;;;27.75;27.75;;;;;-146.03;100.00;60875.16;5019646;28;45545;-85
2022/03/15 10:54:16;;;;;;;;;24.50;24.50;;;;;-146.03;100.00;60875.16;5024232;28;45480;-85
2022/03/15 10:56:58;;;;;;;;;23.25;23.25;;;;;-146.03;100.00;60875.16;5024489;28;45461;-94
2022/03/15 10:59:23;;;;;;;;;26.50;24.00;;;;;-146.03;100.00;60875.16;5014309;28;45735;-83